createdAt,value
2023-02-23T00:00:28.619Z,11.10
2023-02-23T00:05:37.875Z,12.03
2023-02-23T00:10:41.092Z,12.10
2023-02-23T00:15:44.171Z,11.50
2023-02-23T00:20:57.670Z,12.07
2023-02-23T00:26:00.963Z,12.23
2023-02-23T00:31:04.540Z,11.67
2023-02-23T00:36:13.518Z,11.20
2023-02-23T00:41:20.355Z,11.77
2023-02-23T00:46:27.114Z,11.27
2023-02-23T00:51:32.688Z,10.53
2023-02-23T00:56:36.085Z,9.90
2023-02-23T01:01:41.879Z,9.53
2023-02-23T01:06:46.591Z,9.50
2023-02-23T01:11:49.903Z,9.30
2023-02-23T01:16:53.020Z,9.40
2023-02-23T01:21:57.566Z,9.07
2023-02-23T01:27:00.638Z,9.13
2023-02-23T01:32:05.021Z,9.23
2023-02-23T01:37:09.883Z,8.73
2023-02-23T01:42:15.153Z,8.93
2023-02-23T01:47:20.555Z,8.63
2023-02-23T01:52:25.219Z,9.93
2023-02-23T01:57:28.401Z,9.37
2023-02-23T02:02:37.340Z,9.10
2023-02-23T02:07:47.639Z,9.70
2023-02-23T02:12:56.419Z,9.90
2023-02-23T02:18:09.662Z,10.13
2023-02-23T02:23:48.545Z,9.50
2023-02-23T02:29:38.581Z,9.10
2023-02-23T02:35:12.424Z,10.00
2023-02-23T02:40:27.701Z,9.70
2023-02-23T02:45:38.950Z,10.57
2023-02-23T02:50:48.430Z,10.97
2023-02-23T02:55:59.870Z,10.50
2023-02-23T03:01:26.599Z,10.13
2023-02-23T03:06:53.505Z,10.17
2023-02-23T03:12:26.912Z,10.30
2023-02-23T03:17:54.118Z,10.03
2023-02-23T03:23:18.874Z,11.50
2023-02-23T03:28:45.929Z,10.20
2023-02-23T03:34:14.336Z,10.80
2023-02-23T03:39:41.848Z,10.87
2023-02-23T03:45:06.824Z,10.83
2023-02-23T03:50:34.009Z,10.10
2023-02-23T03:55:58.248Z,10.00
2023-02-23T04:01:23.834Z,9.70
2023-02-23T04:06:50.332Z,9.60
2023-02-23T04:12:16.532Z,10.53
2023-02-23T04:17:22.664Z,10.03
2023-02-23T04:22:26.648Z,9.73
2023-02-23T04:27:33.383Z,10.30
2023-02-23T04:32:38.362Z,10.33
2023-02-23T04:37:41.608Z,9.23
2023-02-23T04:42:44.932Z,9.73
2023-02-23T04:47:49.629Z,9.83
2023-02-23T04:52:53.400Z,10.43
2023-02-23T04:58:00.433Z,9.63
2023-02-23T05:03:05.545Z,10.23
2023-02-23T05:08:08.900Z,9.87
2023-02-23T05:13:12.081Z,9.63
2023-02-23T05:18:16.578Z,10.60
2023-02-23T05:23:21.713Z,10.83
2023-02-23T05:28:25.230Z,9.93
2023-02-23T05:33:29.981Z,9.77
2023-02-23T05:38:33.176Z,9.67
2023-02-23T05:43:36.472Z,10.43
2023-02-23T05:48:40.940Z,10.30
2023-02-23T05:53:44.088Z,10.23
2023-02-23T05:58:47.530Z,10.47
2023-02-23T06:03:52.303Z,10.30
2023-02-23T06:08:56.342Z,11.03
2023-02-23T06:14:00.682Z,10.90
2023-02-23T06:19:05.210Z,10.23
2023-02-23T06:24:08.332Z,11.00
2023-02-23T06:29:12.002Z,10.67
2023-02-23T06:34:16.891Z,9.83
2023-02-23T06:39:20.145Z,10.60
2023-02-23T06:44:23.457Z,10.00
2023-02-23T06:49:27.880Z,10.60
2023-02-23T06:54:30.925Z,10.87
2023-02-23T06:59:34.143Z,10.70
2023-02-23T07:04:38.736Z,10.40
2023-02-23T07:09:42.932Z,10.63
2023-02-23T07:14:46.212Z,10.63
2023-02-23T07:19:50.780Z,9.77
2023-02-23T07:24:53.892Z,10.60
2023-02-23T07:29:57.226Z,9.93
2023-02-23T07:35:01.922Z,9.73
2023-02-23T07:40:05.402Z,11.00
2023-02-23T07:45:10.033Z,10.97
2023-02-23T07:50:14.758Z,10.80
2023-02-23T07:55:17.924Z,13.23
2023-02-23T08:00:21.433Z,11.00
2023-02-23T08:05:26.678Z,9.80
2023-02-23T08:10:29.940Z,11.00
2023-02-23T08:15:33.198Z,9.57
2023-02-23T08:20:37.596Z,10.73
2023-02-23T08:25:40.996Z,9.93
2023-02-23T08:30:44.179Z,9.67
2023-02-23T08:35:49.000Z,9.80
2023-02-23T08:40:52.166Z,9.97
2023-02-23T08:45:55.402Z,10.50
2023-02-23T08:51:00.747Z,10.60
2023-02-23T08:56:06.201Z,10.90
2023-02-23T09:01:17.997Z,10.13
2023-02-23T09:06:25.507Z,11.15
2023-02-23T09:11:28.678Z,12.27
2023-02-23T09:16:32.417Z,11.48
2023-02-23T09:21:37.206Z,13.00
2023-02-23T09:26:45.629Z,12.75
2023-02-23T09:31:51.524Z,12.43
2023-02-23T09:36:56.553Z,13.15
2023-02-23T09:42:18.215Z,13.50
2023-02-23T09:47:32.818Z,13.80
2023-02-23T09:52:42.495Z,14.00
2023-02-23T09:57:48.553Z,14.52
2023-02-23T10:03:16.140Z,14.27
2023-02-23T10:08:34.886Z,15.07
2023-02-23T10:13:49.955Z,14.38
2023-02-23T10:19:01.904Z,16.60
2023-02-23T10:24:13.328Z,16.13
2023-02-23T10:29:27.686Z,15.45
2023-02-23T10:34:32.418Z,15.13
2023-02-23T10:39:37.338Z,14.98
2023-02-23T10:44:40.575Z,14.48
2023-02-23T10:49:47.440Z,15.45
2023-02-23T10:54:53.351Z,15.05
2023-02-23T11:00:27.935Z,16.05
2023-02-23T11:05:44.584Z,17.48
2023-02-23T11:10:59.316Z,18.60
2023-02-23T11:16:06.425Z,17.20
2023-02-23T11:21:23.021Z,20.98
2023-02-23T11:26:32.512Z,20.70
2023-02-23T11:31:39.564Z,18.70
2023-02-23T11:36:42.903Z,19.15
2023-02-23T11:41:48.015Z,20.38
2023-02-23T11:46:52.833Z,19.88
2023-02-23T11:51:56.292Z,18.63
2023-02-23T11:57:02.846Z,19.40
2023-02-23T12:02:26.406Z,21.48
2023-02-23T12:07:41.810Z,20.50
2023-02-23T12:12:55.043Z,21.42
2023-02-23T12:18:05.192Z,21.55
2023-02-23T12:23:13.843Z,20.33
2023-02-23T12:28:30.282Z,20.83
2023-02-23T12:33:39.876Z,20.88
2023-02-23T12:38:53.119Z,21.75
2023-02-23T12:44:03.663Z,22.45
2023-02-23T12:49:17.287Z,21.88
2023-02-23T12:54:32.582Z,20.40
2023-02-23T12:59:55.279Z,22.00
2023-02-23T13:05:26.802Z,23.52
2023-02-23T13:10:42.132Z,22.83
2023-02-23T13:16:01.255Z,23.08
2023-02-23T13:21:11.250Z,21.67
2023-02-23T13:26:25.049Z,23.67
2023-02-23T13:31:33.604Z,23.90
2023-02-23T13:36:38.033Z,26.20
2023-02-23T13:41:46.817Z,25.33
2023-02-23T13:46:58.826Z,26.17
2023-02-23T13:52:11.106Z,25.42
2023-02-23T13:57:16.847Z,26.75
2023-02-23T14:02:34.670Z,27.98
2023-02-23T14:07:44.424Z,25.73
2023-02-23T14:13:06.491Z,26.42
2023-02-23T14:18:35.246Z,26.73
2023-02-23T14:23:54.844Z,27.52
2023-02-23T14:29:26.774Z,26.75
2023-02-23T14:34:57.062Z,28.20
2023-02-23T14:40:45.118Z,27.70
2023-02-23T14:46:06.320Z,28.30
2023-02-23T14:51:26.241Z,27.52
2023-02-23T14:56:43.258Z,28.25
2023-02-23T15:01:47.875Z,28.02
2023-02-23T15:06:56.304Z,28.20
2023-02-23T15:12:13.704Z,28.92
2023-02-23T15:17:20.867Z,30.20
2023-02-23T15:22:29.957Z,29.38
2023-02-23T15:27:43.043Z,29.00
2023-02-23T15:32:46.432Z,29.17
2023-02-23T15:37:59.666Z,29.92
2023-02-23T15:43:14.705Z,31.13
2023-02-23T15:48:22.804Z,30.02
2023-02-23T15:53:32.033Z,32.50
2023-02-23T15:58:56.440Z,32.33
2023-02-23T16:04:03.549Z,34.60
2023-02-23T16:09:27.954Z,32.75
2023-02-23T16:14:35.520Z,34.65
2023-02-23T16:19:41.559Z,34.92
2023-02-23T16:24:46.736Z,34.15
2023-02-23T16:30:00.580Z,36.05
2023-02-23T16:35:11.495Z,34.30
2023-02-23T16:40:16.334Z,36.88
2023-02-23T16:45:22.556Z,37.38
2023-02-23T16:50:27.695Z,36.92
2023-02-23T16:55:39.461Z,37.47
2023-02-23T17:00:42.810Z,36.47
2023-02-23T17:05:57.077Z,38.10
2023-02-23T17:11:03.014Z,39.97
2023-02-23T17:16:07.997Z,38.80
2023-02-23T17:21:13.834Z,42.00
2023-02-23T17:26:28.134Z,40.47
2023-02-23T17:31:32.127Z,38.35
2023-02-23T17:36:35.491Z,39.63
2023-02-23T17:41:40.344Z,39.35
2023-02-23T17:46:43.974Z,38.92
2023-02-23T17:51:47.409Z,40.08
2023-02-23T17:56:52.318Z,40.23
2023-02-23T18:01:56.315Z,40.85
2023-02-23T18:06:59.855Z,41.45
2023-02-23T18:12:05.070Z,42.27
2023-02-23T18:17:08.216Z,41.97
2023-02-23T18:22:11.864Z,41.47
2023-02-23T18:27:16.554Z,42.08
2023-02-23T18:32:19.973Z,42.63
2023-02-23T18:37:25.374Z,45.40
2023-02-23T18:42:31.693Z,44.30
2023-02-23T18:47:35.138Z,37.97
2023-02-23T18:52:40.816Z,30.60
2023-02-23T18:57:45.688Z,22.53
2023-02-23T19:02:49.410Z,22.87
2023-02-23T19:07:52.842Z,22.67
2023-02-23T19:12:57.236Z,22.13
2023-02-23T19:18:00.386Z,21.67
2023-02-23T19:23:04.206Z,23.70
2023-02-23T19:28:10.012Z,24.90
2023-02-23T19:33:14.364Z,22.13
2023-02-23T19:38:17.483Z,23.20
2023-02-23T19:43:22.127Z,23.43
2023-02-23T19:48:27.534Z,23.47
2023-02-23T19:53:31.644Z,25.20
2023-02-23T19:58:39.029Z,24.27
2023-02-23T20:03:43.320Z,24.73
2023-02-23T20:08:48.305Z,26.63
2023-02-23T20:13:53.090Z,24.07
2023-02-23T20:18:57.036Z,22.43
2023-02-23T20:24:01.608Z,19.43
2023-02-23T20:29:10.965Z,21.10
2023-02-23T20:34:15.236Z,17.60
2023-02-23T20:39:19.388Z,15.53
2023-02-23T20:44:25.312Z,15.30
2023-02-23T20:49:29.765Z,16.73
2023-02-23T20:54:45.539Z,17.67
2023-02-23T20:59:52.994Z,18.77
2023-02-23T21:04:56.928Z,19.93
2023-02-23T21:10:05.512Z,21.13
2023-02-23T21:15:17.159Z,21.90
2023-02-23T21:20:30.148Z,21.63
2023-02-23T21:25:33.761Z,20.40
2023-02-23T21:30:41.695Z,22.77
2023-02-23T21:35:45.115Z,21.23
2023-02-23T21:40:49.286Z,21.87
2023-02-23T21:45:54.240Z,21.20
2023-02-23T21:51:03.956Z,23.10
2023-02-23T21:56:11.856Z,22.23
2023-02-23T22:01:19.752Z,21.10
2023-02-23T22:06:25.211Z,20.33
2023-02-23T22:11:30.001Z,21.83
2023-02-23T22:16:36.906Z,22.03
2023-02-23T22:21:41.730Z,20.63
2023-02-23T22:26:50.752Z,20.90
2023-02-23T22:31:55.643Z,20.47
2023-02-23T22:36:59.306Z,18.67
2023-02-23T22:42:09.378Z,18.47
2023-02-23T22:47:14.271Z,17.60
2023-02-23T22:52:17.550Z,19.60
2023-02-23T22:57:20.735Z,18.63
2023-02-23T23:02:25.287Z,17.93
2023-02-23T23:07:29.360Z,19.07
2023-02-23T23:12:34.399Z,18.80
2023-02-23T23:17:39.772Z,16.80
2023-02-23T23:22:43.075Z,17.83
2023-02-23T23:27:46.236Z,17.67
2023-02-23T23:32:50.989Z,17.13
2023-02-23T23:37:54.377Z,17.07
2023-02-23T23:42:57.755Z,15.43
2023-02-23T23:48:09.468Z,13.60
2023-02-23T23:53:14.597Z,13.23
2023-02-23T23:58:18.535Z,13.70
